Adderbury, United Kingdom
Current Conditions -  °F | °C
As of 4:20 PM on Thursday 29 Jan 2015 (Local Time) from EGTK Reporting Station
Clear Clear  
Wind Chill: 27°   Ceiling: Unl
Heat Index: 36°   Visibility: 6mi
Dew Point: 34°   Wind: 14mph
Humidity: 93%   Direction: 290°WNW
Pressure: 28.85"   Gusts: NA
Location:  52.02°N, 1.31°W
Report Text: EGTK 291620Z 29012KT CAVOK 02/01 Q0977
Loading
Personal Weather Stations






























Interactive Weather Map New forecast layout! Learn more

10-Day Weather Forecast

Advertisements
Track Severe Weather on mobile